createdAt,value
2024-01-06T00:00:22.338Z,4.40
2024-01-06T00:02:49.493Z,4.67
2024-01-06T00:05:16.644Z,4.70
2024-01-06T00:07:43.820Z,4.10
2024-01-06T00:10:11.395Z,4.60
2024-01-06T00:12:39.154Z,4.87
2024-01-06T00:15:06.794Z,4.83
2024-01-06T00:17:33.948Z,4.90
2024-01-06T00:20:03.643Z,4.90
2024-01-06T00:22:31.018Z,4.33
2024-01-06T00:24:58.153Z,4.47
2024-01-06T00:27:25.328Z,4.17
2024-01-06T00:29:52.559Z,4.80
2024-01-06T00:32:19.658Z,4.70
2024-01-06T00:34:47.617Z,4.27
2024-01-06T00:37:14.889Z,3.97
2024-01-06T00:39:41.998Z,4.07
2024-01-06T00:42:09.184Z,4.43
2024-01-06T00:44:38.469Z,4.23
2024-01-06T00:47:05.763Z,3.93
2024-01-06T00:49:32.954Z,3.97
2024-01-06T00:52:00.139Z,4.10
2024-01-06T00:54:27.348Z,3.37
2024-01-06T00:56:56.664Z,3.27
2024-01-06T00:59:25.162Z,3.03
2024-01-06T01:01:52.433Z,3.60
2024-01-06T01:04:19.795Z,3.53
2024-01-06T01:06:47.140Z,3.20
2024-01-06T01:09:15.335Z,3.77
2024-01-06T01:11:43.091Z,3.60
2024-01-06T01:14:10.448Z,3.47
2024-01-06T01:16:37.666Z,3.20
2024-01-06T01:19:04.870Z,3.53
2024-01-06T01:21:32.134Z,3.47
2024-01-06T01:23:59.284Z,4.03
2024-01-06T01:26:26.585Z,4.13
2024-01-06T01:28:53.694Z,3.70
2024-01-06T01:31:21.049Z,3.93
2024-01-06T01:33:48.461Z,3.20
2024-01-06T01:36:15.759Z,4.00
2024-01-06T01:38:42.874Z,3.40
2024-01-06T01:41:09.973Z,3.50
2024-01-06T01:43:37.103Z,3.27
2024-01-06T01:46:04.351Z,3.63
2024-01-06T01:48:34.969Z,3.03
2024-01-06T01:51:02.412Z,4.10
2024-01-06T01:53:29.618Z,4.10
2024-01-06T01:55:57.750Z,3.93
2024-01-06T01:58:25.220Z,4.37
2024-01-06T02:00:52.435Z,5.17
2024-01-06T02:03:19.765Z,5.47
2024-01-06T02:05:47.030Z,5.17
2024-01-06T02:08:14.174Z,5.10
2024-01-06T02:10:41.293Z,5.40
2024-01-06T02:13:14.742Z,5.27
2024-01-06T02:15:42.110Z,4.63
2024-01-06T02:18:09.473Z,4.63
2024-01-06T02:20:36.957Z,5.30
2024-01-06T02:23:04.111Z,4.57
2024-01-06T02:25:31.221Z,4.80
2024-01-06T02:27:58.444Z,5.30
2024-01-06T02:30:25.855Z,4.30
2024-01-06T02:32:53.272Z,5.30
2024-01-06T02:35:20.548Z,4.97
2024-01-06T02:37:47.663Z,5.03
2024-01-06T02:40:15.529Z,5.53
2024-01-06T02:42:42.836Z,4.37
2024-01-06T02:45:13.259Z,4.20
2024-01-06T02:47:40.688Z,4.17
2024-01-06T02:50:08.073Z,4.50
2024-01-06T02:52:35.181Z,4.50
2024-01-06T02:55:02.386Z,4.00
2024-01-06T02:57:32.610Z,5.20
2024-01-06T02:59:59.804Z,3.90
2024-01-06T03:02:27.016Z,4.30
2024-01-06T03:04:54.176Z,4.40
2024-01-06T03:07:21.274Z,4.27
2024-01-06T03:09:48.509Z,4.47
2024-01-06T03:12:15.794Z,4.33
2024-01-06T03:14:42.991Z,3.63
2024-01-06T03:17:11.570Z,4.60
2024-01-06T03:19:39.185Z,4.43
2024-01-06T03:22:06.441Z,4.73
2024-01-06T03:24:33.687Z,4.10
2024-01-06T03:27:00.887Z,4.47
2024-01-06T03:29:27.977Z,4.63
2024-01-06T03:31:55.189Z,4.00
2024-01-06T03:34:22.559Z,4.67
2024-01-06T03:36:49.787Z,4.60
2024-01-06T03:39:16.991Z,4.83
2024-01-06T03:41:44.115Z,5.10
2024-01-06T03:44:11.233Z,4.60
2024-01-06T03:46:38.409Z,4.50
2024-01-06T03:49:05.764Z,4.90
2024-01-06T03:51:33.015Z,4.43
2024-01-06T03:54:00.207Z,4.40
2024-01-06T03:56:27.384Z,4.90
2024-01-06T03:58:54.489Z,5.10
2024-01-06T04:01:22.509Z,5.10
2024-01-06T04:03:49.838Z,4.87
2024-01-06T04:06:17.165Z,4.80
2024-01-06T04:08:44.440Z,4.97
2024-01-06T04:11:11.628Z,5.03
2024-01-06T04:13:38.722Z,5.33
2024-01-06T04:16:06.308Z,5.07
2024-01-06T04:18:33.614Z,5.07
2024-01-06T04:21:00.878Z,4.63
2024-01-06T04:23:28.003Z,4.13
2024-01-06T04:25:55.177Z,5.33
2024-01-06T04:28:22.321Z,4.67
2024-01-06T04:30:49.558Z,4.47
2024-01-06T04:33:16.912Z,4.57
2024-01-06T04:35:44.124Z,4.77
2024-01-06T04:38:11.449Z,5.17
2024-01-06T04:40:38.529Z,4.93
2024-01-06T04:43:05.652Z,4.57
2024-01-06T04:45:32.805Z,5.07
2024-01-06T04:48:00.014Z,4.63
2024-01-06T04:50:27.213Z,4.70
2024-01-06T04:52:54.329Z,4.53
2024-01-06T04:55:21.410Z,4.53
2024-01-06T04:57:50.439Z,4.67
2024-01-06T05:00:17.978Z,4.73
2024-01-06T05:02:45.545Z,4.43
2024-01-06T05:05:12.738Z,4.50
2024-01-06T05:07:39.893Z,5.60
2024-01-06T05:10:07.464Z,5.47
2024-01-06T05:12:34.625Z,5.53
2024-01-06T05:15:01.840Z,5.50
2024-01-06T05:17:29.112Z,5.27
2024-01-06T05:19:56.887Z,5.43
2024-01-06T05:22:24.787Z,5.07
2024-01-06T05:24:54.347Z,5.20
2024-01-06T05:27:21.909Z,5.30
2024-01-06T05:29:50.315Z,5.00
2024-01-06T05:32:18.725Z,5.30
2024-01-06T05:34:46.788Z,4.77
2024-01-06T05:37:14.181Z,6.00
2024-01-06T05:39:41.731Z,5.10
2024-01-06T05:42:13.167Z,5.70
2024-01-06T05:44:40.339Z,5.67
2024-01-06T05:47:07.756Z,5.57
2024-01-06T05:49:34.972Z,5.67
2024-01-06T05:52:02.205Z,5.83
2024-01-06T05:54:29.387Z,6.07
2024-01-06T05:56:57.715Z,5.83
2024-01-06T05:59:25.886Z,5.53
2024-01-06T06:01:53.510Z,5.50
2024-01-06T06:04:20.762Z,6.70
2024-01-06T06:06:48.088Z,5.83
2024-01-06T06:09:16.480Z,5.97
2024-01-06T06:11:44.126Z,5.67
2024-01-06T06:14:11.372Z,6.13
2024-01-06T06:16:38.464Z,5.60
2024-01-06T06:19:05.798Z,5.60
2024-01-06T06:21:33.075Z,6.30
2024-01-06T06:24:00.234Z,6.07
2024-01-06T06:26:27.670Z,6.00
2024-01-06T06:28:54.748Z,5.97
2024-01-06T06:31:21.875Z,6.50
2024-01-06T06:33:49.119Z,6.33
2024-01-06T06:36:16.322Z,6.97
2024-01-06T06:38:43.502Z,6.37
2024-01-06T06:41:10.577Z,6.60
2024-01-06T06:43:37.716Z,6.93
2024-01-06T06:46:05.208Z,6.70
2024-01-06T06:48:32.495Z,6.57
2024-01-06T06:50:59.733Z,6.90
2024-01-06T06:53:26.859Z,7.00
2024-01-06T06:55:53.941Z,7.07
2024-01-06T06:58:21.088Z,7.27
2024-01-06T07:00:48.333Z,6.60
2024-01-06T07:03:15.790Z,8.70
2024-01-06T07:05:43.185Z,7.87
2024-01-06T07:08:10.410Z,8.23
2024-01-06T07:10:37.533Z,8.07
2024-01-06T07:13:04.739Z,8.90
2024-01-06T07:15:31.851Z,7.47
2024-01-06T07:17:59.087Z,8.40
2024-01-06T07:20:26.248Z,8.53
2024-01-06T07:22:53.388Z,8.63
2024-01-06T07:25:20.520Z,8.73
2024-01-06T07:27:47.667Z,8.97
2024-01-06T07:30:15.149Z,8.73
2024-01-06T07:32:43.376Z,9.10
2024-01-06T07:35:10.605Z,9.43
2024-01-06T07:37:37.839Z,8.67
2024-01-06T07:40:05.102Z,8.37
2024-01-06T07:42:32.780Z,9.90
2024-01-06T07:45:00.027Z,9.27
2024-01-06T07:47:27.249Z,9.67
2024-01-06T07:49:55.572Z,9.10
2024-01-06T07:52:22.794Z,10.47
2024-01-06T07:54:49.999Z,9.40
2024-01-06T07:57:17.280Z,9.83
2024-01-06T07:59:44.510Z,9.40
2024-01-06T08:02:11.635Z,9.73
2024-01-06T08:04:38.796Z,9.93
2024-01-06T08:07:06.003Z,9.97
2024-01-06T08:09:33.249Z,10.13
2024-01-06T08:12:00.347Z,9.40
2024-01-06T08:14:27.454Z,9.73
2024-01-06T08:16:54.556Z,9.77
2024-01-06T08:19:21.811Z,9.50
2024-01-06T08:21:49.116Z,9.57
2024-01-06T08:24:16.245Z,9.63
2024-01-06T08:26:43.353Z,10.10
2024-01-06T08:29:10.447Z,10.00
2024-01-06T08:31:37.640Z,9.30
2024-01-06T08:34:07.343Z,10.27
2024-01-06T08:36:34.663Z,9.67
2024-01-06T08:39:01.792Z,10.30
2024-01-06T08:41:28.911Z,9.70
2024-01-06T08:43:56.023Z,10.13
2024-01-06T08:46:23.188Z,10.73
2024-01-06T08:48:50.400Z,9.87
2024-01-06T08:51:17.816Z,10.17
2024-01-06T08:53:45.171Z,10.80
2024-01-06T08:56:12.278Z,9.77
2024-01-06T08:58:39.383Z,9.87
2024-01-06T09:01:06.672Z,10.20
2024-01-06T09:03:33.985Z,11.13
2024-01-06T09:06:01.421Z,10.80
2024-01-06T09:08:28.523Z,10.83
2024-01-06T09:10:58.257Z,11.20
2024-01-06T09:13:26.059Z,10.80
2024-01-06T09:15:53.721Z,11.43
2024-01-06T09:18:21.203Z,11.60
2024-01-06T09:20:51.620Z,10.73
2024-01-06T09:23:20.339Z,11.23
2024-01-06T09:25:53.006Z,10.13
2024-01-06T09:28:22.073Z,11.33
2024-01-06T09:30:49.295Z,10.63
2024-01-06T09:33:18.326Z,11.43
2024-01-06T09:35:45.638Z,10.77
2024-01-06T09:38:12.864Z,9.90
2024-01-06T09:40:47.048Z,10.80
2024-01-06T09:43:14.269Z,11.40
2024-01-06T09:45:41.588Z,11.30
2024-01-06T09:48:15.745Z,11.30
2024-01-06T09:50:43.682Z,10.60
2024-01-06T09:53:12.225Z,10.77
2024-01-06T09:55:39.878Z,10.93
2024-01-06T09:58:08.011Z,11.23
2024-01-06T10:00:35.377Z,10.97
2024-01-06T10:03:02.519Z,11.00
2024-01-06T10:05:29.694Z,11.70
2024-01-06T10:07:56.847Z,11.53
2024-01-06T10:10:24.732Z,11.77
2024-01-06T10:12:55.384Z,12.03
2024-01-06T10:15:23.104Z,12.40
2024-01-06T10:17:51.110Z,12.50
2024-01-06T10:20:18.815Z,12.63
2024-01-06T10:22:46.744Z,12.83
2024-01-06T10:25:14.801Z,13.60
2024-01-06T10:27:42.709Z,11.97
2024-01-06T10:30:11.283Z,12.97
2024-01-06T10:32:39.071Z,12.17
2024-01-06T10:35:08.276Z,12.33
2024-01-06T10:37:35.681Z,12.67
2024-01-06T10:40:12.878Z,12.07
2024-01-06T10:42:40.875Z,12.03
2024-01-06T10:45:14.845Z,11.57
2024-01-06T10:47:44.262Z,11.23
2024-01-06T10:50:11.830Z,10.60
2024-01-06T10:52:40.249Z,11.60
2024-01-06T10:55:07.854Z,11.83
2024-01-06T10:57:35.951Z,11.27
2024-01-06T11:00:03.189Z,12.20
2024-01-06T11:02:30.966Z,11.33
2024-01-06T11:04:58.091Z,10.97
2024-01-06T11:07:26.929Z,11.57
2024-01-06T11:10:03.599Z,10.60
2024-01-06T11:12:30.862Z,10.13
2024-01-06T11:14:58.024Z,11.03
2024-01-06T11:17:48.087Z,11.17
2024-01-06T11:20:15.296Z,11.07
2024-01-06T11:22:43.028Z,11.47
2024-01-06T11:25:14.975Z,10.13
2024-01-06T11:27:43.657Z,11.50
2024-01-06T11:30:20.505Z,10.90
2024-01-06T11:32:48.176Z,10.63
2024-01-06T11:35:15.426Z,11.13
2024-01-06T11:37:42.832Z,10.10
2024-01-06T11:40:18.376Z,10.63
2024-01-06T11:42:45.975Z,11.47
2024-01-06T11:45:14.676Z,11.23
2024-01-06T11:47:42.537Z,11.50
2024-01-06T11:50:09.767Z,11.50
2024-01-06T11:52:36.919Z,11.07
2024-01-06T11:55:04.063Z,11.07
2024-01-06T11:57:31.390Z,10.73
2024-01-06T11:59:58.679Z,11.03
2024-01-06T12:02:26.218Z,11.53
2024-01-06T12:04:54.359Z,12.20
2024-01-06T12:07:24.434Z,12.10
2024-01-06T12:13:21.008Z,11.87
2024-01-06T12:15:48.423Z,12.43
2024-01-06T12:18:16.206Z,12.27
2024-01-06T12:20:46.169Z,11.97
2024-01-06T12:23:13.282Z,12.70
2024-01-06T12:25:41.210Z,12.77
2024-01-06T12:28:08.528Z,13.80
2024-01-06T12:30:36.741Z,14.27
2024-01-06T12:33:04.479Z,13.93
2024-01-06T12:35:31.677Z,12.60
2024-01-06T12:37:58.907Z,13.13
2024-01-06T12:40:27.495Z,12.50
2024-01-06T12:42:54.685Z,11.30
2024-01-06T12:45:21.934Z,11.63
2024-01-06T12:47:49.231Z,10.73
2024-01-06T12:50:16.419Z,9.10
2024-01-06T12:52:43.642Z,9.60
2024-01-06T12:55:10.751Z,9.37
2024-01-06T12:57:37.972Z,9.43
2024-01-06T13:00:07.005Z,9.33
2024-01-06T13:02:34.164Z,9.43
2024-01-06T13:05:01.361Z,8.53
2024-01-06T13:07:28.547Z,9.23
2024-01-06T13:09:55.742Z,9.17
2024-01-06T13:12:24.787Z,9.17
2024-01-06T13:14:52.241Z,8.70
2024-01-06T13:17:19.407Z,9.80
2024-01-06T13:19:46.636Z,11.33
2024-01-06T13:22:15.769Z,9.93
2024-01-06T13:24:42.887Z,10.00
2024-01-06T13:27:10.234Z,9.23
2024-01-06T13:29:37.318Z,9.63
2024-01-06T13:32:04.581Z,9.50
2024-01-06T13:34:31.940Z,9.73
2024-01-06T13:36:59.178Z,9.87
2024-01-06T13:39:26.369Z,9.60
2024-01-06T13:41:53.557Z,9.63
2024-01-06T13:44:21.522Z,9.57
2024-01-06T13:46:50.093Z,9.23
2024-01-06T13:49:17.275Z,9.47
2024-01-06T13:51:45.238Z,10.10
2024-01-06T13:54:12.839Z,9.80
2024-01-06T13:56:39.971Z,13.60
2024-01-06T13:59:07.158Z,14.07
2024-01-06T14:01:34.689Z,11.47
2024-01-06T14:04:02.412Z,11.00
2024-01-06T14:06:31.547Z,10.10
2024-01-06T14:08:59.549Z,9.97
2024-01-06T14:11:27.519Z,9.80
2024-01-06T14:13:54.996Z,9.93
2024-01-06T14:16:22.284Z,10.60
2024-01-06T14:18:49.797Z,9.87
2024-01-06T14:21:20.400Z,10.70
2024-01-06T14:23:49.195Z,11.03
2024-01-06T14:26:16.438Z,10.83
2024-01-06T14:28:43.562Z,10.33
2024-01-06T14:31:11.315Z,10.83
2024-01-06T14:33:38.744Z,10.20
2024-01-06T14:36:06.039Z,10.70
2024-01-06T14:38:33.189Z,11.33
2024-01-06T14:41:00.300Z,11.50
2024-01-06T14:43:27.461Z,12.00
2024-01-06T14:45:54.584Z,11.90
2024-01-06T14:48:21.935Z,12.27
2024-01-06T14:50:49.661Z,11.70
2024-01-06T14:53:16.766Z,12.33
2024-01-06T14:55:43.839Z,12.17
2024-01-06T14:58:10.946Z,11.50
2024-01-06T15:00:38.216Z,11.30
2024-01-06T15:03:05.415Z,12.37
2024-01-06T15:05:32.927Z,13.10
2024-01-06T15:08:00.080Z,11.40
2024-01-06T15:10:27.337Z,13.27
2024-01-06T15:12:54.458Z,12.40
2024-01-06T15:15:21.870Z,13.63
2024-01-06T15:17:49.021Z,12.83
2024-01-06T15:20:16.292Z,13.27
2024-01-06T15:22:43.429Z,13.90
2024-01-06T15:25:11.422Z,13.37
2024-01-06T15:27:38.817Z,12.83
2024-01-06T15:30:09.982Z,12.93
2024-01-06T15:32:38.128Z,12.97
2024-01-06T15:35:05.604Z,13.30
2024-01-06T15:37:32.752Z,12.67
2024-01-06T15:40:00.232Z,12.70
2024-01-06T15:42:27.779Z,11.90
2024-01-06T15:44:54.922Z,13.40
2024-01-06T15:47:22.086Z,13.80
2024-01-06T15:49:49.313Z,13.17
2024-01-06T15:52:16.633Z,14.17
2024-01-06T15:54:43.868Z,14.07
2024-01-06T15:57:11.096Z,14.13
2024-01-06T15:59:38.262Z,13.77
2024-01-06T16:02:05.327Z,14.23
2024-01-06T16:04:32.492Z,13.93
2024-01-06T16:06:59.787Z,14.60
2024-01-06T16:09:27.298Z,14.67
2024-01-06T16:11:58.199Z,15.30
2024-01-06T16:14:26.666Z,15.13
2024-01-06T16:16:54.287Z,15.43
2024-01-06T16:19:21.726Z,17.10
2024-01-06T16:21:54.465Z,15.57
2024-01-06T16:24:27.534Z,14.43
2024-01-06T16:26:54.825Z,15.70
2024-01-06T16:29:22.250Z,15.10
2024-01-06T16:31:49.621Z,16.40
2024-01-06T16:34:17.306Z,16.50
2024-01-06T16:36:44.872Z,15.23
2024-01-06T16:39:12.000Z,15.23
2024-01-06T16:41:39.095Z,16.10
2024-01-06T16:44:06.546Z,16.33
2024-01-06T16:46:33.650Z,16.07
2024-01-06T16:49:00.935Z,16.13
2024-01-06T16:51:28.121Z,16.23
2024-01-06T16:53:55.219Z,16.43
2024-01-06T16:56:22.362Z,15.87
2024-01-06T16:58:49.484Z,16.97
2024-01-06T17:01:17.232Z,17.07
2024-01-06T17:03:44.546Z,15.07
2024-01-06T17:06:13.004Z,16.43
2024-01-06T17:08:41.782Z,16.30
2024-01-06T17:11:08.882Z,17.47
2024-01-06T17:13:35.987Z,15.53
2024-01-06T17:16:03.206Z,16.17
2024-01-06T17:18:30.472Z,16.17
2024-01-06T17:20:57.691Z,15.53
2024-01-06T17:23:25.691Z,14.63
2024-01-06T17:25:52.801Z,14.70
2024-01-06T17:28:19.914Z,15.23
2024-01-06T17:30:47.062Z,15.83
2024-01-06T17:33:14.702Z,17.17
2024-01-06T17:35:41.943Z,19.43
2024-01-06T17:38:09.141Z,16.50
2024-01-06T17:40:36.303Z,15.40
2024-01-06T17:43:03.571Z,15.63
2024-01-06T17:45:31.301Z,15.63
2024-01-06T17:47:58.607Z,15.73
2024-01-06T17:50:25.737Z,17.63
2024-01-06T17:52:53.552Z,16.00
2024-01-06T17:55:21.362Z,16.43
2024-01-06T17:57:48.573Z,16.80
2024-01-06T18:00:15.855Z,17.00
2024-01-06T18:02:44.795Z,17.10
2024-01-06T18:05:12.390Z,17.57
2024-01-06T18:07:39.611Z,24.98
2024-01-06T18:10:09.763Z,21.20
2024-01-06T18:12:42.323Z,16.67
2024-01-06T18:15:09.566Z,16.07
2024-01-06T18:17:37.532Z,16.70
2024-01-06T18:20:04.933Z,15.63
2024-01-06T18:22:32.273Z,16.63
2024-01-06T18:24:59.515Z,17.00
2024-01-06T18:27:26.680Z,15.00
2024-01-06T18:29:53.825Z,16.90
2024-01-06T18:32:21.010Z,16.53
2024-01-06T18:34:48.502Z,16.23
2024-01-06T18:37:15.832Z,15.77
2024-01-06T18:39:43.018Z,15.90
2024-01-06T18:42:10.461Z,16.40
2024-01-06T18:44:37.586Z,16.20
2024-01-06T18:47:09.467Z,14.43
2024-01-06T18:49:37.150Z,15.20
2024-01-06T18:52:04.575Z,15.57
2024-01-06T18:54:35.402Z,15.17
2024-01-06T18:57:09.903Z,14.13
2024-01-06T18:59:37.054Z,14.50
2024-01-06T19:02:04.380Z,15.30
2024-01-06T19:04:31.489Z,15.70
2024-01-06T19:06:58.831Z,15.30
2024-01-06T19:09:27.359Z,15.10
2024-01-06T19:11:54.536Z,14.07
2024-01-06T19:14:21.636Z,12.87
2024-01-06T19:16:48.887Z,13.17
2024-01-06T19:19:18.725Z,12.27
2024-01-06T19:21:51.147Z,13.87
2024-01-06T19:24:27.662Z,12.67
2024-01-06T19:27:00.230Z,11.77
2024-01-06T19:29:29.420Z,12.27
2024-01-06T19:31:56.536Z,12.37
2024-01-06T19:34:23.954Z,12.30
2024-01-06T19:36:51.288Z,12.23
2024-01-06T19:39:18.590Z,12.90
2024-01-06T19:41:45.718Z,11.20
2024-01-06T19:44:12.871Z,12.03
2024-01-06T19:46:41.008Z,11.40
2024-01-06T19:49:08.336Z,11.03
2024-01-06T19:51:36.072Z,10.93
2024-01-06T19:54:03.300Z,11.07
2024-01-06T19:56:30.405Z,11.23
2024-01-06T19:58:57.640Z,12.27
2024-01-06T20:01:24.884Z,12.43
2024-01-06T20:03:52.127Z,11.90
2024-01-06T20:06:20.168Z,12.73
2024-01-06T20:08:47.339Z,11.33
2024-01-06T20:11:14.446Z,12.57
2024-01-06T20:13:41.559Z,12.30
2024-01-06T20:16:08.710Z,12.07
2024-01-06T20:18:36.197Z,11.90
2024-01-06T20:21:04.366Z,11.47
2024-01-06T20:23:32.086Z,12.37
2024-01-06T20:25:59.330Z,13.33
2024-01-06T20:28:26.492Z,13.33
2024-01-06T20:30:54.119Z,12.33
2024-01-06T20:33:21.587Z,12.90
2024-01-06T20:35:48.963Z,12.43
2024-01-06T20:38:16.246Z,13.30
2024-01-06T20:40:43.693Z,13.30
2024-01-06T20:43:10.921Z,13.20
2024-01-06T20:45:38.092Z,12.60
2024-01-06T20:48:07.633Z,12.23
2024-01-06T20:50:34.751Z,12.40
2024-01-06T20:53:01.897Z,11.90
2024-01-06T20:55:28.982Z,12.30
2024-01-06T20:57:57.133Z,11.77
2024-01-06T21:00:25.525Z,11.77
2024-01-06T21:02:53.177Z,11.87
2024-01-06T21:05:20.470Z,10.57
2024-01-06T21:07:48.655Z,11.63
2024-01-06T21:10:15.956Z,11.00
2024-01-06T21:12:44.081Z,10.87
2024-01-06T21:15:11.494Z,11.47
2024-01-06T21:17:38.708Z,11.20
2024-01-06T21:20:06.281Z,10.67
2024-01-06T21:22:34.896Z,10.97
2024-01-06T21:25:03.754Z,9.77
2024-01-06T21:27:30.971Z,9.57
2024-01-06T21:29:58.674Z,10.07
2024-01-06T21:32:26.342Z,10.27
2024-01-06T21:34:53.573Z,10.47
2024-01-06T21:37:20.725Z,10.00
2024-01-06T21:39:47.903Z,9.93
2024-01-06T21:42:15.010Z,10.47
2024-01-06T21:44:42.893Z,10.43
2024-01-06T21:47:09.977Z,10.33
2024-01-06T21:49:37.395Z,10.40
2024-01-06T21:52:06.001Z,9.53
2024-01-06T21:54:33.278Z,10.70
2024-01-06T21:57:00.385Z,10.70
2024-01-06T21:59:27.553Z,9.97
2024-01-06T22:01:54.727Z,11.17
2024-01-06T22:04:22.003Z,10.90
2024-01-06T22:06:49.240Z,10.60
2024-01-06T22:09:18.833Z,10.07
2024-01-06T22:11:46.791Z,9.80
2024-01-06T22:14:14.865Z,10.40
2024-01-06T22:16:43.211Z,10.47
2024-01-06T22:19:13.630Z,10.83
2024-01-06T22:21:47.040Z,10.67
2024-01-06T22:24:16.385Z,10.17
2024-01-06T22:26:43.545Z,9.73
2024-01-06T22:29:11.048Z,8.23
2024-01-06T22:31:42.712Z,8.63
2024-01-06T22:34:11.064Z,8.77
2024-01-06T22:36:38.534Z,9.80
2024-01-06T22:39:05.996Z,9.13
2024-01-06T22:41:33.223Z,9.07
2024-01-06T22:44:00.343Z,9.43
2024-01-06T22:46:28.491Z,10.57
2024-01-06T22:48:56.310Z,9.70
2024-01-06T22:51:23.482Z,10.40
2024-01-06T22:53:50.854Z,9.63
2024-01-06T22:56:18.480Z,9.97
2024-01-06T22:58:45.644Z,7.83
2024-01-06T23:01:12.904Z,8.70
2024-01-06T23:03:40.281Z,7.83
2024-01-06T23:06:08.491Z,8.50
2024-01-06T23:08:36.310Z,8.23
2024-01-06T23:11:04.594Z,8.60
2024-01-06T23:15:59.386Z,7.97
2024-01-06T23:18:26.942Z,8.73
2024-01-06T23:20:54.192Z,8.57
2024-01-06T23:23:21.317Z,7.93
2024-01-06T23:25:48.397Z,8.87
2024-01-06T23:28:15.868Z,8.43
2024-01-06T23:30:43.138Z,8.90
2024-01-06T23:33:10.405Z,9.00
2024-01-06T23:35:37.629Z,8.20
2024-01-06T23:38:04.924Z,8.20
2024-01-06T23:40:32.163Z,8.23
2024-01-06T23:42:59.348Z,7.90
2024-01-06T23:45:26.687Z,8.00
2024-01-06T23:47:54.297Z,8.00
2024-01-06T23:50:21.664Z,7.73
2024-01-06T23:52:48.813Z,8.60
2024-01-06T23:55:16.350Z,8.30
2024-01-06T23:57:43.514Z,8.90
